sensor_id;sensor_type;location;lat;lon;timestamp;pressure;altitude;pressure_sealevel;temperature;humidity
27805;BME280;15183;51.350;11.102;2024-01-11T00:01:30;101619.88;;;-2.44;60.97
27805;BME280;15183;51.350;11.102;2024-01-11T00:03:56;101629.44;;;-2.45;60.13
27805;BME280;15183;51.350;11.102;2024-01-11T00:06:23;101638.50;;;-2.52;59.92
27805;BME280;15183;51.350;11.102;2024-01-11T00:08:49;101626.09;;;-2.62;60.92
27805;BME280;15183;51.350;11.102;2024-01-11T00:11:15;101629.91;;;-2.67;60.31
27805;BME280;15183;51.350;11.102;2024-01-11T00:13:45;101595.00;;;-2.91;60.32
27805;BME280;15183;51.350;11.102;2024-01-11T00:16:11;101620.28;;;-2.80;60.42
27805;BME280;15183;51.350;11.102;2024-01-11T00:18:38;101630.66;;;-2.80;61.24
27805;BME280;15183;51.350;11.102;2024-01-11T00:21:05;101641.22;;;-2.83;60.99
27805;BME280;15183;51.350;11.102;2024-01-11T00:23:31;101619.19;;;-2.90;60.65
27805;BME280;15183;51.350;11.102;2024-01-11T00:25:58;101618.06;;;-2.86;60.79
27805;BME280;15183;51.350;11.102;2024-01-11T00:28:25;101603.91;;;-2.80;61.34
27805;BME280;15183;51.350;11.102;2024-01-11T00:30:51;101601.56;;;-2.70;61.21
27805;BME280;15183;51.350;11.102;2024-01-11T00:33:18;101599.53;;;-2.65;61.00
27805;BME280;15183;51.350;11.102;2024-01-11T00:35:44;101600.44;;;-2.66;60.84
27805;BME280;15183;51.350;11.102;2024-01-11T00:38:11;101601.84;;;-2.75;60.05
27805;BME280;15183;51.350;11.102;2024-01-11T00:40:37;101600.28;;;-2.92;60.37
27805;BME280;15183;51.350;11.102;2024-01-11T00:43:04;101588.16;;;-3.06;60.61
27805;BME280;15183;51.350;11.102;2024-01-11T00:45:31;101588.59;;;-3.14;61.30
27805;BME280;15183;51.350;11.102;2024-01-11T00:47:57;101582.69;;;-3.16;60.97
27805;BME280;15183;51.350;11.102;2024-01-11T00:50:24;101591.22;;;-2.99;61.50
27805;BME280;15183;51.350;11.102;2024-01-11T00:52:50;101588.88;;;-2.89;61.40
27805;BME280;15183;51.350;11.102;2024-01-11T00:55:16;101593.25;;;-2.90;61.00
27805;BME280;15183;51.350;11.102;2024-01-11T00:57:43;101578.06;;;-2.96;61.00
27805;BME280;15183;51.350;11.102;2024-01-11T01:00:11;101571.66;;;-2.91;60.45
27805;BME280;15183;51.350;11.102;2024-01-11T01:02:40;101581.09;;;-2.75;60.57
27805;BME280;15183;51.350;11.102;2024-01-11T01:05:07;101586.91;;;-2.71;60.26
27805;BME280;15183;51.350;11.102;2024-01-11T01:07:33;101570.63;;;-2.73;60.82
27805;BME280;15183;51.350;11.102;2024-01-11T01:10:00;101567.03;;;-2.71;60.52
27805;BME280;15183;51.350;11.102;2024-01-11T01:12:26;101573.69;;;-2.67;60.49
27805;BME280;15183;51.350;11.102;2024-01-11T01:14:53;101539.25;;;-2.83;60.07
27805;BME280;15183;51.350;11.102;2024-01-11T01:17:19;101558.81;;;-2.92;59.75
27805;BME280;15183;51.350;11.102;2024-01-11T01:19:45;101585.13;;;-2.98;59.65
27805;BME280;15183;51.350;11.102;2024-01-11T01:22:12;101578.44;;;-3.17;60.77
27805;BME280;15183;51.350;11.102;2024-01-11T01:24:38;101572.69;;;-3.22;60.98
27805;BME280;15183;51.350;11.102;2024-01-11T01:27:05;101573.91;;;-3.13;61.17
27805;BME280;15183;51.350;11.102;2024-01-11T01:29:31;101567.50;;;-3.08;61.43
27805;BME280;15183;51.350;11.102;2024-01-11T01:31:58;101563.06;;;-3.06;61.19
27805;BME280;15183;51.350;11.102;2024-01-11T01:34:24;101564.91;;;-2.93;61.14
27805;BME280;15183;51.350;11.102;2024-01-11T01:36:50;101570.84;;;-2.91;61.15
27805;BME280;15183;51.350;11.102;2024-01-11T01:39:17;101565.66;;;-2.91;61.03
27805;BME280;15183;51.350;11.102;2024-01-11T01:41:43;101565.00;;;-2.95;60.58
27805;BME280;15183;51.350;11.102;2024-01-11T01:44:10;101573.31;;;-2.89;60.87
27805;BME280;15183;51.350;11.102;2024-01-11T01:46:36;101592.78;;;-2.82;61.14
27805;BME280;15183;51.350;11.102;2024-01-11T01:49:03;101594.28;;;-2.78;60.86
27805;BME280;15183;51.350;11.102;2024-01-11T01:51:31;101602.50;;;-2.71;60.38
27805;BME280;15183;51.350;11.102;2024-01-11T01:53:58;101586.72;;;-2.68;60.88
27805;BME280;15183;51.350;11.102;2024-01-11T01:56:26;101566.56;;;-2.78;60.35
27805;BME280;15183;51.350;11.102;2024-01-11T01:58:53;101542.41;;;-2.93;60.62
27805;BME280;15183;51.350;11.102;2024-01-11T02:01:21;101579.34;;;-2.74;60.67
27805;BME280;15183;51.350;11.102;2024-01-11T02:03:52;101581.72;;;-2.71;60.56
27805;BME280;15183;51.350;11.102;2024-01-11T02:06:24;101556.66;;;-2.71;60.08
27805;BME280;15183;51.350;11.102;2024-01-11T02:08:52;101563.09;;;-2.64;60.21
27805;BME280;15183;51.350;11.102;2024-01-11T02:11:20;101568.75;;;-2.57;60.47
27805;BME280;15183;51.350;11.102;2024-01-11T02:13:47;101567.09;;;-2.58;59.84
27805;BME280;15183;51.350;11.102;2024-01-11T02:16:14;101553.94;;;-2.69;59.39
27805;BME280;15183;51.350;11.102;2024-01-11T02:18:41;101565.06;;;-2.67;59.47
27805;BME280;15183;51.350;11.102;2024-01-11T02:21:11;101562.44;;;-2.67;60.27
27805;BME280;15183;51.350;11.102;2024-01-11T02:24:03;101583.03;;;-2.64;60.11
27805;BME280;15183;51.350;11.102;2024-01-11T02:26:30;101591.44;;;-2.60;59.71
27805;BME280;15183;51.350;11.102;2024-01-11T02:28:56;101589.06;;;-2.64;60.05
27805;BME280;15183;51.350;11.102;2024-01-11T02:31:24;101581.81;;;-2.58;59.60
27805;BME280;15183;51.350;11.102;2024-01-11T02:33:54;101569.88;;;-2.61;59.61
27805;BME280;15183;51.350;11.102;2024-01-11T02:36:21;101583.41;;;-2.56;60.01
27805;BME280;15183;51.350;11.102;2024-01-11T02:38:48;101585.34;;;-2.59;59.42
27805;BME280;15183;51.350;11.102;2024-01-11T02:44:57;101579.44;;;-2.76;59.69
27805;BME280;15183;51.350;11.102;2024-01-11T02:47:24;101585.44;;;-2.76;60.45
27805;BME280;15183;51.350;11.102;2024-01-11T02:49:51;101555.16;;;-2.89;59.79
27805;BME280;15183;51.350;11.102;2024-01-11T02:52:18;101588.03;;;-2.76;60.29
27805;BME280;15183;51.350;11.102;2024-01-11T02:54:44;101586.56;;;-2.80;60.37
27805;BME280;15183;51.350;11.102;2024-01-11T03:00:52;101566.84;;;-2.97;60.44
27805;BME280;15183;51.350;11.102;2024-01-11T03:03:18;101571.66;;;-2.91;60.59
27805;BME280;15183;51.350;11.102;2024-01-11T03:05:44;101581.31;;;-2.78;60.05
27805;BME280;15183;51.350;11.102;2024-01-11T03:08:11;101576.66;;;-2.73;60.13
27805;BME280;15183;51.350;11.102;2024-01-11T03:10:37;101578.31;;;-2.72;60.27
27805;BME280;15183;51.350;11.102;2024-01-11T03:13:07;101580.91;;;-2.72;60.24
27805;BME280;15183;51.350;11.102;2024-01-11T03:15:33;101571.38;;;-2.86;59.91
27805;BME280;15183;51.350;11.102;2024-01-11T03:18:00;101570.53;;;-2.86;60.38
27805;BME280;15183;51.350;11.102;2024-01-11T03:20:26;101573.06;;;-2.85;60.20
27805;BME280;15183;51.350;11.102;2024-01-11T03:22:52;101584.25;;;-2.84;59.98
27805;BME280;15183;51.350;11.102;2024-01-11T03:25:19;101578.44;;;-3.02;59.84
27805;BME280;15183;51.350;11.102;2024-01-11T03:27:45;101573.34;;;-3.18;60.46
27805;BME280;15183;51.350;11.102;2024-01-11T03:30:13;101567.50;;;-3.22;60.81
27805;BME280;15183;51.350;11.102;2024-01-11T03:32:39;101579.63;;;-3.23;60.45
27805;BME280;15183;51.350;11.102;2024-01-11T03:35:09;101563.31;;;-3.25;60.98
27805;BME280;15183;51.350;11.102;2024-01-11T03:37:35;101558.06;;;-3.23;60.44
27805;BME280;15183;51.350;11.102;2024-01-11T03:40:03;101570.03;;;-3.21;60.79
27805;BME280;15183;51.350;11.102;2024-01-11T03:42:30;101556.75;;;-3.16;61.06
27805;BME280;15183;51.350;11.102;2024-01-11T03:44:56;101544.53;;;-3.14;61.16
27805;BME280;15183;51.350;11.102;2024-01-11T03:47:22;101536.03;;;-3.16;60.60
27805;BME280;15183;51.350;11.102;2024-01-11T03:49:49;101544.66;;;-3.15;60.60
27805;BME280;15183;51.350;11.102;2024-01-11T03:52:15;101553.25;;;-3.29;59.96
27805;BME280;15183;51.350;11.102;2024-01-11T03:54:42;101544.53;;;-3.43;60.28
27805;BME280;15183;51.350;11.102;2024-01-11T03:57:08;101551.47;;;-3.43;60.36
27805;BME280;15183;51.350;11.102;2024-01-11T03:59:35;101544.91;;;-3.49;61.24
27805;BME280;15183;51.350;11.102;2024-01-11T04:02:01;101551.22;;;-3.39;60.79
27805;BME280;15183;51.350;11.102;2024-01-11T04:04:27;101550.28;;;-3.38;61.23
27805;BME280;15183;51.350;11.102;2024-01-11T04:06:54;101532.91;;;-3.36;60.76
27805;BME280;15183;51.350;11.102;2024-01-11T04:09:20;101526.78;;;-3.35;61.39
27805;BME280;15183;51.350;11.102;2024-01-11T04:11:47;101524.75;;;-3.29;60.65
27805;BME280;15183;51.350;11.102;2024-01-11T04:14:13;101522.41;;;-3.34;61.23
27805;BME280;15183;51.350;11.102;2024-01-11T04:16:41;101532.72;;;-3.32;60.99
27805;BME280;15183;51.350;11.102;2024-01-11T04:19:16;101536.19;;;-3.48;60.83
27805;BME280;15183;51.350;11.102;2024-01-11T04:21:42;101547.59;;;-3.81;60.24
27805;BME280;15183;51.350;11.102;2024-01-11T04:24:09;101570.81;;;-3.94;61.17
27805;BME280;15183;51.350;11.102;2024-01-11T04:26:35;101570.69;;;-3.93;61.83
27805;BME280;15183;51.350;11.102;2024-01-11T04:29:02;101575.34;;;-3.83;62.39
27805;BME280;15183;51.350;11.102;2024-01-11T04:31:28;101574.09;;;-3.76;62.13
27805;BME280;15183;51.350;11.102;2024-01-11T04:33:55;101590.47;;;-3.61;62.32
27805;BME280;15183;51.350;11.102;2024-01-11T04:36:21;101594.13;;;-3.49;61.84
27805;BME280;15183;51.350;11.102;2024-01-11T04:38:47;101577.66;;;-3.48;61.92
27805;BME280;15183;51.350;11.102;2024-01-11T04:41:15;101578.78;;;-3.38;61.03
27805;BME280;15183;51.350;11.102;2024-01-11T04:43:43;101601.66;;;-3.30;61.46
27805;BME280;15183;51.350;11.102;2024-01-11T04:46:17;101611.88;;;-3.43;60.30
27805;BME280;15183;51.350;11.102;2024-01-11T04:48:44;101593.72;;;-3.57;60.34
27805;BME280;15183;51.350;11.102;2024-01-11T04:51:12;101622.25;;;-3.43;61.01
27805;BME280;15183;51.350;11.102;2024-01-11T04:57:20;101610.41;;;-3.47;60.70
27805;BME280;15183;51.350;11.102;2024-01-11T04:59:46;101610.06;;;-3.41;61.03
27805;BME280;15183;51.350;11.102;2024-01-11T05:02:13;101613.03;;;-3.32;60.84
27805;BME280;15183;51.350;11.102;2024-01-11T05:04:39;101628.59;;;-3.18;60.89
27805;BME280;15183;51.350;11.102;2024-01-11T05:07:05;101632.97;;;-3.18;60.74
27805;BME280;15183;51.350;11.102;2024-01-11T05:09:32;101616.00;;;-3.24;60.44
27805;BME280;15183;51.350;11.102;2024-01-11T05:11:58;101623.41;;;-3.18;60.31
27805;BME280;15183;51.350;11.102;2024-01-11T05:14:25;101623.91;;;-3.11;60.13
27805;BME280;15183;51.350;11.102;2024-01-11T05:16:51;101626.19;;;-3.07;60.25
27805;BME280;15183;51.350;11.102;2024-01-11T05:19:18;101618.34;;;-3.05;59.99
27805;BME280;15183;51.350;11.102;2024-01-11T05:21:44;101611.38;;;-3.05;60.39
27805;BME280;15183;51.350;11.102;2024-01-11T05:24:10;101586.94;;;-3.15;60.03
27805;BME280;15183;51.350;11.102;2024-01-11T05:26:37;101592.41;;;-3.05;59.95
27805;BME280;15183;51.350;11.102;2024-01-11T05:29:03;101579.91;;;-3.13;59.54
27805;BME280;15183;51.350;11.102;2024-01-11T05:31:31;101572.50;;;-3.19;60.51
27805;BME280;15183;51.350;11.102;2024-01-11T05:33:57;101577.13;;;-3.24;59.78
27805;BME280;15183;51.350;11.102;2024-01-11T05:36:23;101553.06;;;-3.41;60.57
27805;BME280;15183;51.350;11.102;2024-01-11T05:38:50;101572.75;;;-3.38;61.06
27805;BME280;15183;51.350;11.102;2024-01-11T05:41:16;101554.69;;;-3.54;60.19
27805;BME280;15183;51.350;11.102;2024-01-11T05:43:43;101564.81;;;-3.50;61.14
27805;BME280;15183;51.350;11.102;2024-01-11T05:46:10;101563.94;;;-3.50;61.49
27805;BME280;15183;51.350;11.102;2024-01-11T05:48:36;101564.31;;;-3.56;61.33
27805;BME280;15183;51.350;11.102;2024-01-11T05:51:03;101591.56;;;-3.65;60.28
27805;BME280;15183;51.350;11.102;2024-01-11T05:53:29;101600.56;;;-3.71;61.28
27805;BME280;15183;51.350;11.102;2024-01-11T05:55:56;101605.44;;;-3.66;61.75
27805;BME280;15183;51.350;11.102;2024-01-11T05:58:22;101602.78;;;-3.65;61.92
27805;BME280;15183;51.350;11.102;2024-01-11T06:00:49;101617.97;;;-3.58;61.52
27805;BME280;15183;51.350;11.102;2024-01-11T06:03:15;101604.03;;;-3.56;61.67
27805;BME280;15183;51.350;11.102;2024-01-11T06:05:41;101608.38;;;-3.42;61.62
27805;BME280;15183;51.350;11.102;2024-01-11T06:08:08;101592.69;;;-3.39;61.46
27805;BME280;15183;51.350;11.102;2024-01-11T06:10:34;101597.31;;;-3.29;61.45
27805;BME280;15183;51.350;11.102;2024-01-11T06:13:01;101599.91;;;-3.15;61.45
27805;BME280;15183;51.350;11.102;2024-01-11T06:15:27;101592.50;;;-3.07;61.39
27805;BME280;15183;51.350;11.102;2024-01-11T06:17:53;101599.28;;;-3.04;60.40
27805;BME280;15183;51.350;11.102;2024-01-11T06:20:20;101590.81;;;-3.37;59.97
27805;BME280;15183;51.350;11.102;2024-01-11T06:22:46;101618.81;;;-3.58;59.89
27805;BME280;15183;51.350;11.102;2024-01-11T06:25:13;101629.19;;;-3.58;60.60
27805;BME280;15183;51.350;11.102;2024-01-11T06:27:42;101616.97;;;-3.56;61.45
27805;BME280;15183;51.350;11.102;2024-01-11T06:30:10;101630.81;;;-3.41;61.89
27805;BME280;15183;51.350;11.102;2024-01-11T06:32:36;101638.22;;;-3.35;61.74
27805;BME280;15183;51.350;11.102;2024-01-11T06:35:03;101651.56;;;-3.26;61.31
27805;BME280;15183;51.350;11.102;2024-01-11T06:37:30;101640.75;;;-3.18;61.18
27805;BME280;15183;51.350;11.102;2024-01-11T06:39:57;101636.84;;;-3.11;60.89
27805;BME280;15183;51.350;11.102;2024-01-11T06:42:23;101633.16;;;-3.07;60.95
27805;BME280;15183;51.350;11.102;2024-01-11T06:44:49;101613.22;;;-3.07;61.45
27805;BME280;15183;51.350;11.102;2024-01-11T06:47:16;101623.53;;;-2.91;61.48
27805;BME280;15183;51.350;11.102;2024-01-11T06:49:42;101617.88;;;-2.83;61.45
27805;BME280;15183;51.350;11.102;2024-01-11T06:52:09;101612.97;;;-2.73;60.67
27805;BME280;15183;51.350;11.102;2024-01-11T06:54:35;101618.72;;;-2.68;61.00
27805;BME280;15183;51.350;11.102;2024-01-11T06:57:02;101619.81;;;-2.57;60.29
27805;BME280;15183;51.350;11.102;2024-01-11T06:59:28;101612.94;;;-2.58;60.28
27805;BME280;15183;51.350;11.102;2024-01-11T07:01:54;101615.25;;;-2.54;61.05
27805;BME280;15183;51.350;11.102;2024-01-11T07:04:21;101614.34;;;-2.53;60.63
27805;BME280;15183;51.350;11.102;2024-01-11T07:06:47;101602.84;;;-2.49;61.14
27805;BME280;15183;51.350;11.102;2024-01-11T07:09:14;101594.94;;;-2.47;61.15
27805;BME280;15183;51.350;11.102;2024-01-11T07:11:43;101593.66;;;-2.54;60.73
27805;BME280;15183;51.350;11.102;2024-01-11T07:14:10;101612.38;;;-2.49;60.61
27805;BME280;15183;51.350;11.102;2024-01-11T07:16:36;101597.44;;;-2.45;60.78
27805;BME280;15183;51.350;11.102;2024-01-11T07:19:03;101597.38;;;-2.44;61.26
27805;BME280;15183;51.350;11.102;2024-01-11T07:21:29;101615.69;;;-2.33;61.57
27805;BME280;15183;51.350;11.102;2024-01-11T07:24:00;101610.38;;;-2.31;61.19
27805;BME280;15183;51.350;11.102;2024-01-11T07:26:27;101612.69;;;-2.26;61.41
27805;BME280;15183;51.350;11.102;2024-01-11T07:28:54;101605.84;;;-2.27;61.39
27805;BME280;15183;51.350;11.102;2024-01-11T07:31:23;101602.97;;;-2.23;61.01
27805;BME280;15183;51.350;11.102;2024-01-11T07:33:50;101575.19;;;-2.35;61.49
27805;BME280;15183;51.350;11.102;2024-01-11T07:36:16;101592.28;;;-2.18;61.29
27805;BME280;15183;51.350;11.102;2024-01-11T07:39:29;101593.84;;;-2.15;61.64
27805;BME280;15183;51.350;11.102;2024-01-11T07:41:57;101589.78;;;-2.20;61.06
27805;BME280;15183;51.350;11.102;2024-01-11T07:44:23;101594.06;;;-2.19;61.66
27805;BME280;15183;51.350;11.102;2024-01-11T07:46:50;101603.00;;;-2.10;60.95
27805;BME280;15183;51.350;11.102;2024-01-11T07:49:16;101591.06;;;-2.12;60.84
27805;BME280;15183;51.350;11.102;2024-01-11T07:51:42;101590.00;;;-2.10;61.07
27805;BME280;15183;51.350;11.102;2024-01-11T07:57:51;101609.50;;;-2.17;61.15
27805;BME280;15183;51.350;11.102;2024-01-11T08:00:17;101604.63;;;-2.22;60.74
27805;BME280;15183;51.350;11.102;2024-01-11T08:02:43;101607.44;;;-2.25;60.98
27805;BME280;15183;51.350;11.102;2024-01-11T08:05:10;101592.59;;;-2.23;61.32
27805;BME280;15183;51.350;11.102;2024-01-11T08:07:36;101579.88;;;-2.27;61.80
27805;BME280;15183;51.350;11.102;2024-01-11T08:10:03;101579.03;;;-2.28;61.78
27805;BME280;15183;51.350;11.102;2024-01-11T08:12:30;101602.38;;;-2.13;61.65
27805;BME280;15183;51.350;11.102;2024-01-11T08:14:56;101584.47;;;-2.18;61.07
27805;BME280;15183;51.350;11.102;2024-01-11T08:17:23;101564.50;;;-2.30;60.99
27805;BME280;15183;51.350;11.102;2024-01-11T08:19:49;101591.88;;;-2.39;61.30
27805;BME280;15183;51.350;11.102;2024-01-11T08:22:16;101588.41;;;-2.67;60.91
27805;BME280;15183;51.350;11.102;2024-01-11T08:24:42;101603.97;;;-2.67;61.81
27805;BME280;15183;51.350;11.102;2024-01-11T08:27:09;101581.56;;;-2.83;62.35
27805;BME280;15183;51.350;11.102;2024-01-11T08:33:17;101603.81;;;-2.64;62.60
27805;BME280;15183;51.350;11.102;2024-01-11T08:35:43;101615.84;;;-2.63;62.23
27805;BME280;15183;51.350;11.102;2024-01-11T08:38:09;101607.59;;;-2.70;63.04
27805;BME280;15183;51.350;11.102;2024-01-11T08:40:36;101613.53;;;-2.68;62.60
27805;BME280;15183;51.350;11.102;2024-01-11T08:43:03;101596.38;;;-2.70;63.68
27805;BME280;15183;51.350;11.102;2024-01-11T08:45:29;101616.56;;;-2.47;63.35
27805;BME280;15183;51.350;11.102;2024-01-11T08:47:56;101614.56;;;-2.28;63.26
27805;BME280;15183;51.350;11.102;2024-01-11T08:50:23;101617.03;;;-2.12;63.88
27805;BME280;15183;51.350;11.102;2024-01-11T08:52:50;101616.22;;;-2.00;63.18
27805;BME280;15183;51.350;11.102;2024-01-11T08:55:16;101616.06;;;-1.84;63.52
27805;BME280;15183;51.350;11.102;2024-01-11T08:57:42;101610.91;;;-1.71;63.16
27805;BME280;15183;51.350;11.102;2024-01-11T09:00:09;101618.09;;;-1.62;62.87
27805;BME280;15183;51.350;11.102;2024-01-11T09:02:36;101619.25;;;-1.66;62.05
27805;BME280;15183;51.350;11.102;2024-01-11T09:05:03;101596.34;;;-1.86;61.99
27805;BME280;15183;51.350;11.102;2024-01-11T09:07:33;101595.50;;;-1.87;61.87
27805;BME280;15183;51.350;11.102;2024-01-11T09:09:59;101591.69;;;-1.81;62.43
27805;BME280;15183;51.350;11.102;2024-01-11T09:12:26;101600.72;;;-1.74;62.43
27805;BME280;15183;51.350;11.102;2024-01-11T09:14:52;101588.38;;;-1.70;62.49
27805;BME280;15183;51.350;11.102;2024-01-11T09:17:19;101589.63;;;-1.63;62.74
27805;BME280;15183;51.350;11.102;2024-01-11T09:19:45;101587.78;;;-1.48;62.93
27805;BME280;15183;51.350;11.102;2024-01-11T09:22:12;101582.06;;;-1.40;62.90
27805;BME280;15183;51.350;11.102;2024-01-11T09:24:38;101568.13;;;-1.39;63.05
27805;BME280;15183;51.350;11.102;2024-01-11T09:27:04;101579.78;;;-1.32;62.88
27805;BME280;15183;51.350;11.102;2024-01-11T09:29:31;101587.25;;;-1.27;62.91
27805;BME280;15183;51.350;11.102;2024-01-11T09:31:59;101590.50;;;-1.11;62.96
27805;BME280;15183;51.350;11.102;2024-01-11T09:34:25;101590.69;;;-1.01;63.13
27805;BME280;15183;51.350;11.102;2024-01-11T09:36:52;101583.50;;;-0.97;63.80
27805;BME280;15183;51.350;11.102;2024-01-11T09:39:18;101589.44;;;-0.95;63.14
27805;BME280;15183;51.350;11.102;2024-01-11T09:42:18;101590.25;;;-0.95;63.38
27805;BME280;15183;51.350;11.102;2024-01-11T09:44:44;101612.72;;;-0.81;63.91
27805;BME280;15183;51.350;11.102;2024-01-11T09:47:11;101618.25;;;-0.73;64.36
27805;BME280;15183;51.350;11.102;2024-01-11T09:49:40;101615.59;;;-0.60;64.25
27805;BME280;15183;51.350;11.102;2024-01-11T09:52:07;101604.78;;;-0.53;63.93
27805;BME280;15183;51.350;11.102;2024-01-11T09:54:37;101604.94;;;-0.44;63.51
27805;BME280;15183;51.350;11.102;2024-01-11T09:57:07;101605.75;;;-0.30;64.32
27805;BME280;15183;51.350;11.102;2024-01-11T09:59:36;101616.84;;;-0.15;63.82
27805;BME280;15183;51.350;11.102;2024-01-11T10:02:03;101612.63;;;-0.05;63.78
27805;BME280;15183;51.350;11.102;2024-01-11T10:08:11;101595.50;;;0.04;64.31
27805;BME280;15183;51.350;11.102;2024-01-11T10:10:37;101614.88;;;0.24;64.24
27805;BME280;15183;51.350;11.102;2024-01-11T10:13:05;101598.66;;;0.32;63.71
27805;BME280;15183;51.350;11.102;2024-01-11T10:15:32;101590.50;;;0.37;64.40
27805;BME280;15183;51.350;11.102;2024-01-11T10:17:58;101584.47;;;0.48;64.16
27805;BME280;15183;51.350;11.102;2024-01-11T10:20:25;101586.38;;;0.57;64.20
27805;BME280;15183;51.350;11.102;2024-01-11T10:22:51;101573.81;;;0.62;63.56
27805;BME280;15183;51.350;11.102;2024-01-11T10:25:18;101580.00;;;0.72;63.84
27805;BME280;15183;51.350;11.102;2024-01-11T10:27:45;101565.06;;;0.75;63.61
27805;BME280;15183;51.350;11.102;2024-01-11T10:30:13;101554.66;;;0.86;63.84
27805;BME280;15183;51.350;11.102;2024-01-11T10:32:46;101541.84;;;0.83;64.44
27805;BME280;15183;51.350;11.102;2024-01-11T10:35:15;101541.34;;;1.00;63.95
27805;BME280;15183;51.350;11.102;2024-01-11T10:37:44;101537.53;;;1.05;64.07
27805;BME280;15183;51.350;11.102;2024-01-11T10:40:11;101539.09;;;1.07;63.80
27805;BME280;15183;51.350;11.102;2024-01-11T10:42:45;101538.97;;;0.97;63.95
27805;BME280;15183;51.350;11.102;2024-01-11T10:45:18;101549.44;;;0.86;64.12
27805;BME280;15183;51.350;11.102;2024-01-11T10:47:54;101551.56;;;0.81;64.54
27805;BME280;15183;51.350;11.102;2024-01-11T10:50:23;101548.97;;;0.81;64.87
27805;BME280;15183;51.350;11.102;2024-01-11T10:55:21;101540.53;;;0.89;65.10
27805;BME280;15183;51.350;11.102;2024-01-11T10:57:49;101531.75;;;0.90;64.92
27805;BME280;15183;51.350;11.102;2024-01-11T11:00:17;101510.63;;;0.93;65.56
27805;BME280;15183;51.350;11.102;2024-01-11T11:02:45;101503.16;;;0.99;65.17
27805;BME280;15183;51.350;11.102;2024-01-11T11:05:13;101487.88;;;0.95;65.93
27805;BME280;15183;51.350;11.102;2024-01-11T11:07:42;101524.38;;;1.18;65.56
27805;BME280;15183;51.350;11.102;2024-01-11T11:10:09;101510.13;;;1.22;65.92
27805;BME280;15183;51.350;11.102;2024-01-11T11:12:37;101518.28;;;1.28;65.90
27805;BME280;15183;51.350;11.102;2024-01-11T11:15:06;101469.69;;;1.16;65.95
27805;BME280;15183;51.350;11.102;2024-01-11T11:17:33;101501.31;;;1.34;65.72
27805;BME280;15183;51.350;11.102;2024-01-11T11:19:59;101499.63;;;1.44;65.47
27805;BME280;15183;51.350;11.102;2024-01-11T11:22:27;101494.16;;;1.48;65.67
27805;BME280;15183;51.350;11.102;2024-01-11T11:25:04;101483.66;;;1.59;66.35
27805;BME280;15183;51.350;11.102;2024-01-11T11:27:34;101491.50;;;1.59;65.52
27805;BME280;15183;51.350;11.102;2024-01-11T11:30:01;101483.78;;;1.57;65.94
27805;BME280;15183;51.350;11.102;2024-01-11T11:32:38;101475.13;;;1.57;66.07
27805;BME280;15183;51.350;11.102;2024-01-11T11:35:08;101444.88;;;1.43;66.02
27805;BME280;15183;51.350;11.102;2024-01-11T11:37:39;101467.16;;;1.58;66.45
27805;BME280;15183;51.350;11.102;2024-01-11T11:40:09;101463.09;;;1.66;67.20
27805;BME280;15183;51.350;11.102;2024-01-11T11:42:39;101458.06;;;1.74;66.67
27805;BME280;15183;51.350;11.102;2024-01-11T11:45:09;101485.16;;;1.94;67.07
27805;BME280;15183;51.350;11.102;2024-01-11T11:47:38;101480.50;;;1.98;66.46
27805;BME280;15183;51.350;11.102;2024-01-11T11:50:09;101456.22;;;1.86;66.59
27805;BME280;15183;51.350;11.102;2024-01-11T11:52:38;101475.56;;;2.05;66.68
27805;BME280;15183;51.350;11.102;2024-01-11T11:55:07;101469.16;;;2.09;66.42
27805;BME280;15183;51.350;11.102;2024-01-11T11:57:35;101483.81;;;2.21;67.07
27805;BME280;15183;51.350;11.102;2024-01-11T12:00:03;101478.16;;;2.26;66.75
27805;BME280;15183;51.350;11.102;2024-01-11T12:02:33;101477.53;;;2.34;66.74
27805;BME280;15183;51.350;11.102;2024-01-11T12:05:02;101490.09;;;2.40;66.92
27805;BME280;15183;51.350;11.102;2024-01-11T12:07:30;101477.84;;;2.40;67.17
27805;BME280;15183;51.350;11.102;2024-01-11T12:09:57;101486.03;;;2.57;67.12
27805;BME280;15183;51.350;11.102;2024-01-11T12:12:24;101450.09;;;2.59;67.39
27805;BME280;15183;51.350;11.102;2024-01-11T12:14:50;101454.84;;;2.75;67.42
27805;BME280;15183;51.350;11.102;2024-01-11T12:17:17;101467.28;;;3.02;67.77
27805;BME280;15183;51.350;11.102;2024-01-11T12:19:43;101454.53;;;3.19;67.54
27805;BME280;15183;51.350;11.102;2024-01-11T12:22:09;101441.28;;;3.30;67.41
27805;BME280;15183;51.350;11.102;2024-01-11T12:24:36;101429.44;;;3.46;67.15
27805;BME280;15183;51.350;11.102;2024-01-11T12:27:03;101420.88;;;3.64;67.61
27805;BME280;15183;51.350;11.102;2024-01-11T12:29:30;101417.97;;;3.76;67.80
27805;BME280;15183;51.350;11.102;2024-01-11T12:31:57;101413.91;;;3.92;67.63
27805;BME280;15183;51.350;11.102;2024-01-11T12:34:26;101403.41;;;4.02;66.90
27805;BME280;15183;51.350;11.102;2024-01-11T12:36:53;101384.47;;;4.08;67.16
27805;BME280;15183;51.350;11.102;2024-01-11T12:39:26;101390.63;;;4.27;67.35
27805;BME280;15183;51.350;11.102;2024-01-11T12:41:54;101384.00;;;4.23;67.09
27805;BME280;15183;51.350;11.102;2024-01-11T12:44:24;101373.66;;;4.21;66.35
27805;BME280;15183;51.350;11.102;2024-01-11T12:46:51;101368.44;;;4.11;66.65
27805;BME280;15183;51.350;11.102;2024-01-11T12:49:18;101399.75;;;4.23;66.44
27805;BME280;15183;51.350;11.102;2024-01-11T12:51:45;101378.16;;;4.01;66.53
27805;BME280;15183;51.350;11.102;2024-01-11T12:54:14;101386.28;;;4.08;66.76
27805;BME280;15183;51.350;11.102;2024-01-11T12:56:43;101382.28;;;4.03;66.60
27805;BME280;15183;51.350;11.102;2024-01-11T12:59:10;101396.03;;;4.15;66.79
27805;BME280;15183;51.350;11.102;2024-01-11T13:01:38;101376.69;;;4.16;66.24
27805;BME280;15183;51.350;11.102;2024-01-11T13:04:05;101387.84;;;4.28;66.41
27805;BME280;15183;51.350;11.102;2024-01-11T13:06:34;101389.34;;;4.31;66.46
27805;BME280;15183;51.350;11.102;2024-01-11T13:09:02;101388.13;;;4.25;66.43